createdAt,value
2019-02-28T00:01:39.307Z,98918.31
2019-02-28T00:04:10.030Z,98913.48
2019-02-28T00:06:40.379Z,98906.28
2019-02-28T00:09:12.144Z,98910.75
2019-02-28T00:11:42.434Z,98903.45
2019-02-28T00:14:12.757Z,98902.96
2019-02-28T00:16:43.225Z,98907.89
2019-02-28T00:19:13.372Z,98897.05
2019-02-28T00:21:43.542Z,98894.86
2019-02-28T00:24:13.741Z,98892.86
2019-02-28T00:26:47.541Z,98890.77
2019-02-28T00:29:15.929Z,98884.50
2019-02-28T00:31:49.463Z,98892.16
2019-02-28T00:34:18.038Z,98892.05
2019-02-28T00:36:50.307Z,98883.75
2019-02-28T00:39:20.447Z,98880.84
2019-02-28T00:41:50.706Z,98874.65
2019-02-28T00:44:20.892Z,98872.62
2019-02-28T00:46:51.115Z,98865.73
2019-02-28T00:49:24.494Z,98864.81
2019-02-28T00:51:53.429Z,98855.25
2019-02-28T00:54:23.666Z,98857.13
2019-02-28T00:56:53.877Z,98857.70
2019-02-28T00:59:24.265Z,98849.87
2019-02-28T01:01:54.463Z,98847.99
2019-02-28T01:04:25.769Z,98841.73
2019-02-28T01:06:55.963Z,98829.16
2019-02-28T01:09:27.143Z,98825.70
2019-02-28T01:11:58.389Z,98818.81
2019-02-28T01:14:28.594Z,98811.22
2019-02-28T01:16:58.857Z,98817.30
2019-02-28T01:19:29.075Z,98805.85
2019-02-28T01:21:59.303Z,98798.88
2019-02-28T01:24:34.483Z,98800.72
2019-02-28T01:27:01.537Z,98795.08
2019-02-28T01:29:32.914Z,98794.86
2019-02-28T01:32:03.621Z,98796.05
2019-02-28T01:34:33.843Z,98791.17
2019-02-28T01:37:04.066Z,98787.77
2019-02-28T01:39:34.244Z,98784.70
2019-02-28T01:42:04.763Z,98786.48
2019-02-28T01:44:35.842Z,98771.40
2019-02-28T01:47:06.863Z,98781.00
2019-02-28T01:49:37.059Z,98773.81
2019-02-28T01:52:10.190Z,98775.27
2019-02-28T01:54:39.172Z,98765.46
2019-02-28T01:57:10.063Z,98761.91
2019-02-28T01:59:40.545Z,98751.44
2019-02-28T02:02:10.730Z,98744.34
2019-02-28T02:04:43.240Z,98746.08
2019-02-28T02:07:13.327Z,98744.84
2019-02-28T02:09:46.313Z,98743.66
2019-02-28T02:12:15.443Z,98740.66
2019-02-28T02:14:45.821Z,98732.53
2019-02-28T02:17:16.101Z,98728.48
2019-02-28T02:19:49.388Z,98722.34
2019-02-28T02:22:18.229Z,98710.69
2019-02-28T02:24:48.455Z,98706.91
2019-02-28T02:27:19.475Z,98702.73
2019-02-28T02:29:50.850Z,98696.15
2019-02-28T02:32:21.180Z,98692.63
2019-02-28T02:34:51.455Z,98689.72
2019-02-28T02:37:21.749Z,98677.64
2019-02-28T02:39:52.016Z,98678.98
2019-02-28T02:42:22.248Z,98674.91
2019-02-28T02:44:52.461Z,98661.52
2019-02-28T02:47:22.673Z,98658.74
2019-02-28T02:49:57.423Z,98657.30
2019-02-28T02:52:29.963Z,98652.01
2019-02-28T02:54:56.983Z,98649.92
2019-02-28T02:57:27.163Z,98644.31
2019-02-28T02:59:58.468Z,98646.86
2019-02-28T03:02:33.170Z,98639.60
2019-02-28T03:05:01.993Z,98644.27
2019-02-28T03:07:32.390Z,98642.70
2019-02-28T03:10:02.613Z,98648.98
2019-02-28T03:12:34.288Z,98651.22
2019-02-28T03:15:04.679Z,98650.26
2019-02-28T03:17:35.841Z,98639.64
2019-02-28T03:20:07.951Z,98643.41
2019-02-28T03:22:38.664Z,98636.58
2019-02-28T03:25:10.017Z,98638.32
2019-02-28T03:27:40.175Z,98631.96
2019-02-28T03:30:26.496Z,98621.27
2019-02-28T03:32:44.813Z,98621.50
2019-02-28T03:35:15.082Z,98633.23
2019-02-28T03:37:45.284Z,98629.75
2019-02-28T03:40:15.587Z,98625.28
2019-02-28T03:42:45.784Z,98620.04
2019-02-28T03:45:16.245Z,98620.23
2019-02-28T03:47:48.128Z,98620.92
2019-02-28T03:50:21.865Z,98613.29
2019-02-28T03:52:50.454Z,98610.47
2019-02-28T03:55:20.785Z,98600.23
2019-02-28T03:57:50.987Z,98601.62
2019-02-28T04:00:21.271Z,98598.23
2019-02-28T04:02:56.917Z,98598.02
2019-02-28T04:05:28.070Z,98592.02
2019-02-28T04:07:55.955Z,98585.63
2019-02-28T04:10:26.136Z,98582.75
2019-02-28T04:12:57.768Z,98579.75
2019-02-28T04:15:27.989Z,98575.42
2019-02-28T04:17:58.251Z,98570.06
2019-02-28T04:20:36.118Z,98564.56
2019-02-28T04:23:01.561Z,98562.67
2019-02-28T04:25:31.763Z,98554.18
2019-02-28T04:28:02.176Z,98556.34
2019-02-28T04:30:34.381Z,98551.57
2019-02-28T04:33:04.648Z,98557.78
2019-02-28T04:35:34.819Z,98550.80
2019-02-28T04:38:05.100Z,98545.66
2019-02-28T04:40:35.305Z,98540.73
2019-02-28T04:43:07.236Z,98542.85
2019-02-28T04:45:37.746Z,98542.77
2019-02-28T04:48:07.946Z,98540.68
2019-02-28T04:50:38.266Z,98541.17
2019-02-28T04:53:08.545Z,98533.39
2019-02-28T04:55:38.790Z,98532.06
2019-02-28T04:58:09.022Z,98541.27
2019-02-28T05:00:39.260Z,98536.37
2019-02-28T05:03:09.548Z,98531.34
2019-02-28T05:05:40.221Z,98524.98
2019-02-28T05:08:10.523Z,98521.83
2019-02-28T05:10:40.705Z,98526.16
2019-02-28T05:13:11.448Z,98519.69
2019-02-28T05:15:43.214Z,98509.72
2019-02-28T05:18:13.394Z,98506.77
2019-02-28T05:20:45.962Z,98499.87
2019-02-28T05:23:15.704Z,98498.44
2019-02-28T05:25:45.907Z,98492.22
2019-02-28T05:28:16.186Z,98486.92
2019-02-28T05:30:46.505Z,98490.70
2019-02-28T05:33:16.726Z,98484.31
2019-02-28T05:35:47.121Z,98483.94
2019-02-28T05:38:20.757Z,98483.70
2019-02-28T05:40:49.392Z,98488.59
2019-02-28T05:43:19.620Z,98486.31
2019-02-28T05:45:49.886Z,98486.59
2019-02-28T05:48:20.175Z,98487.91
2019-02-28T05:50:53.337Z,98479.09
2019-02-28T05:53:22.304Z,98475.83
2019-02-28T05:55:52.584Z,98470.83
2019-02-28T05:58:22.732Z,98466.14
2019-02-28T06:00:53.033Z,98470.49
2019-02-28T06:03:23.233Z,98474.47
2019-02-28T06:05:53.735Z,98471.41
2019-02-28T06:08:24.470Z,98463.00
2019-02-28T06:10:56.069Z,98459.32
2019-02-28T06:13:26.739Z,98461.09
2019-02-28T06:15:58.229Z,98461.14
2019-02-28T06:18:32.669Z,98458.00
2019-02-28T06:21:00.793Z,98449.40
2019-02-28T06:23:31.135Z,98456.48
2019-02-28T06:26:01.477Z,98461.48
2019-02-28T06:28:32.024Z,98463.41
2019-02-28T06:31:02.242Z,98466.28
2019-02-28T06:33:33.689Z,98468.85
2019-02-28T06:36:05.465Z,98475.05
2019-02-28T06:38:35.738Z,98472.08
2019-02-28T06:41:07.607Z,98468.10
2019-02-28T06:43:38.102Z,98472.98
2019-02-28T06:46:09.490Z,98468.95
2019-02-28T06:48:39.773Z,98480.21
2019-02-28T06:51:10.533Z,98471.08
2019-02-28T06:53:41.971Z,98476.78
2019-02-28T06:56:12.168Z,98473.34
2019-02-28T06:58:42.402Z,98470.84
2019-02-28T07:01:12.754Z,98468.70
2019-02-28T07:03:53.142Z,98469.33
2019-02-28T07:06:17.905Z,98472.69
2019-02-28T07:08:48.173Z,98467.20
2019-02-28T07:11:19.922Z,98466.63
2019-02-28T07:13:50.439Z,98457.84
2019-02-28T07:16:21.032Z,98459.91
2019-02-28T07:18:53.831Z,98452.83
2019-02-28T07:21:24.040Z,98460.48
2019-02-28T07:23:54.320Z,98450.94
2019-02-28T07:26:24.619Z,98464.98
2019-02-28T07:28:54.854Z,98460.55
2019-02-28T07:31:25.543Z,98445.80
2019-02-28T07:33:57.573Z,98444.38
2019-02-28T07:36:27.826Z,98452.63
2019-02-28T07:39:01.227Z,98446.25
2019-02-28T07:41:33.925Z,98443.71
2019-02-28T07:44:04.467Z,98443.73
2019-02-28T07:46:34.661Z,98438.53
2019-02-28T07:49:04.929Z,98459.48
2019-02-28T07:51:35.188Z,98455.75
2019-02-28T07:54:05.370Z,98450.95
2019-02-28T07:56:42.742Z,98448.81
2019-02-28T07:59:08.372Z,98446.42
2019-02-28T08:01:38.584Z,98445.67
2019-02-28T08:04:08.808Z,98452.23
2019-02-28T08:06:40.425Z,98453.51
2019-02-28T08:09:26.848Z,98448.31
2019-02-28T08:11:57.262Z,98447.86
2019-02-28T08:14:27.696Z,98448.27
2019-02-28T08:16:57.921Z,98442.20
2019-02-28T08:19:28.324Z,98432.70
2019-02-28T08:21:58.612Z,98441.89
2019-02-28T08:24:28.850Z,98437.02
2019-02-28T08:26:59.265Z,98435.23
2019-02-28T08:29:29.446Z,98442.72
2019-02-28T08:31:59.678Z,98439.19
2019-02-28T08:34:29.874Z,98437.52
2019-02-28T08:37:00.339Z,98434.27
2019-02-28T08:39:31.098Z,98434.19
2019-02-28T08:42:04.550Z,98433.38
2019-02-28T08:44:37.390Z,98434.14
2019-02-28T08:47:07.884Z,98437.19
2019-02-28T08:49:44.686Z,98433.00
2019-02-28T08:52:12.141Z,98432.73
2019-02-28T08:54:46.909Z,98436.61
2019-02-28T08:57:17.226Z,98433.63
2019-02-28T08:59:52.513Z,98428.73
2019-02-28T09:02:22.571Z,98429.59
2019-02-28T09:04:53.491Z,98423.78
2019-02-28T09:07:24.158Z,98428.36
2019-02-28T09:09:54.581Z,98430.94
2019-02-28T09:12:24.856Z,98426.26
2019-02-28T09:14:56.201Z,98422.22
2019-02-28T09:17:26.621Z,98424.93
2019-02-28T09:19:56.839Z,98421.81
2019-02-28T09:22:28.059Z,98415.32
2019-02-28T09:25:13.846Z,98425.16
2019-02-28T09:27:45.435Z,98425.81
2019-02-28T09:30:31.297Z,98412.58
2019-02-28T09:33:01.568Z,98423.83
2019-02-28T09:35:31.972Z,98420.23
2019-02-28T09:38:06.361Z,98426.48
2019-02-28T09:40:36.375Z,98407.41
2019-02-28T09:43:06.622Z,98413.45
2019-02-28T09:45:40.021Z,98411.17
2019-02-28T09:48:10.140Z,98393.02
2019-02-28T09:50:40.850Z,98387.45
2019-02-28T09:53:15.513Z,98395.78
2019-02-28T09:55:45.882Z,98389.55
2019-02-28T09:58:16.617Z,98391.70
2019-02-28T10:00:50.198Z,98392.31
2019-02-28T10:03:19.536Z,98396.58
2019-02-28T10:05:51.091Z,98400.62
2019-02-28T10:08:26.167Z,98392.42
2019-02-28T10:10:58.096Z,98388.78
2019-02-28T10:13:28.583Z,98384.73
2019-02-28T10:15:58.926Z,98390.56
2019-02-28T10:18:29.372Z,98394.73
2019-02-28T10:21:01.890Z,98391.07
2019-02-28T10:23:31.640Z,98389.67
2019-02-28T10:26:03.512Z,98388.25
2019-02-28T10:28:33.842Z,98396.12
2019-02-28T10:31:04.086Z,98380.21
2019-02-28T10:33:34.308Z,98381.19
2019-02-28T10:36:04.598Z,98383.01
2019-02-28T10:38:35.641Z,98367.46
2019-02-28T10:41:13.108Z,98375.98
2019-02-28T10:43:54.815Z,98383.88
2019-02-28T10:46:32.103Z,98381.86
2019-02-28T10:49:12.849Z,98383.30
2019-02-28T10:51:50.326Z,98385.41
2019-02-28T10:54:26.651Z,98397.19
2019-02-28T10:57:06.058Z,98396.66
2019-02-28T10:59:42.213Z,98401.94
2019-02-28T11:02:20.042Z,98401.80
2019-02-28T11:04:57.050Z,98393.67
2019-02-28T11:07:34.242Z,98392.81
2019-02-28T11:10:16.279Z,98400.38
2019-02-28T11:12:57.938Z,98404.27
2019-02-28T11:15:36.934Z,98393.97
2019-02-28T11:18:13.344Z,98405.36
2019-02-28T11:20:52.988Z,98400.79
2019-02-28T11:23:31.914Z,98398.72
2019-02-28T11:26:10.481Z,98397.55
2019-02-28T11:28:50.980Z,98393.89
2019-02-28T11:31:29.693Z,98414.28
2019-02-28T11:34:11.605Z,98407.85
2019-02-28T11:36:52.216Z,98417.84
2019-02-28T11:39:33.732Z,98401.37
2019-02-28T11:42:12.121Z,98402.45
2019-02-28T11:44:52.794Z,98398.13
2019-02-28T11:47:32.334Z,98396.90
2019-02-28T11:50:10.821Z,98388.44
2019-02-28T11:52:46.605Z,98388.64
2019-02-28T11:55:20.330Z,98383.03
2019-02-28T11:57:53.259Z,98385.88
2019-02-28T12:00:29.063Z,98396.51
2019-02-28T12:03:00.910Z,98399.53
2019-02-28T12:05:32.236Z,98396.84
2019-02-28T12:08:09.301Z,98395.94
2019-02-28T12:10:36.432Z,98396.34
2019-02-28T12:13:06.678Z,98392.78
2019-02-28T12:15:38.229Z,98397.58
2019-02-28T12:18:09.152Z,98390.39
2019-02-28T12:20:39.703Z,98380.89
2019-02-28T12:23:10.403Z,98384.97
2019-02-28T12:25:42.768Z,98404.27
2019-02-28T12:28:13.028Z,98392.25
2019-02-28T12:30:43.358Z,98407.48
2019-02-28T12:33:15.375Z,98394.34
2019-02-28T12:35:46.780Z,98391.02
2019-02-28T12:38:17.090Z,98384.86
2019-02-28T12:40:49.463Z,98380.28
2019-02-28T12:43:19.484Z,98377.06
2019-02-28T12:45:49.916Z,98382.88
2019-02-28T12:48:21.788Z,98384.88
2019-02-28T12:50:52.263Z,98386.34
2019-02-28T12:53:25.285Z,98378.93
2019-02-28T12:55:55.978Z,98384.05
2019-02-28T12:58:26.257Z,98388.32
2019-02-28T13:01:00.050Z,98395.89
2019-02-28T13:03:30.660Z,98388.11
2019-02-28T13:06:01.150Z,98395.46
2019-02-28T13:08:31.491Z,98388.30
2019-02-28T13:11:04.326Z,98395.47
2019-02-28T13:13:34.239Z,98394.57
2019-02-28T13:16:04.478Z,98392.52
2019-02-28T13:18:34.771Z,98387.50
2019-02-28T13:21:06.220Z,98381.08
2019-02-28T13:23:40.527Z,98383.08
2019-02-28T13:26:10.935Z,98381.19
2019-02-28T13:28:41.364Z,98382.07
2019-02-28T13:31:50.072Z,98375.50
2019-02-28T13:34:40.789Z,98370.37
2019-02-28T13:37:28.526Z,98359.86
2019-02-28T13:40:24.820Z,98362.33
2019-02-28T13:43:24.190Z,98368.43
2019-02-28T13:46:13.477Z,98373.88
2019-02-28T13:49:21.187Z,98364.57
2019-02-28T13:52:26.531Z,98365.06
2019-02-28T13:55:18.951Z,98356.56
2019-02-28T13:58:21.588Z,98366.78
2019-02-28T14:01:30.608Z,98370.46
2019-02-28T14:04:44.999Z,98363.09
2019-02-28T14:07:53.420Z,98367.58
2019-02-28T14:10:58.444Z,98368.20
2019-02-28T14:16:49.626Z,98367.31
2019-02-28T14:19:55.329Z,98372.38
2019-02-28T14:22:45.826Z,98365.58
2019-02-28T14:25:54.906Z,98358.53
2019-02-28T14:29:13.877Z,98367.58
2019-02-28T14:35:24.954Z,98363.03
2019-02-28T14:38:36.842Z,98363.88
2019-02-28T14:41:41.897Z,98360.25
2019-02-28T14:44:47.326Z,98357.23
2019-02-28T14:47:56.875Z,98354.63
2019-02-28T14:51:19.072Z,98360.52
2019-02-28T14:54:16.345Z,98359.91
2019-02-28T14:57:13.345Z,98364.33
2019-02-28T15:00:38.974Z,98354.86
2019-02-28T15:03:40.637Z,98354.49
2019-02-28T15:06:12.883Z,98346.40
2019-02-28T15:08:43.331Z,98352.83
2019-02-28T15:11:13.834Z,98350.75
2019-02-28T15:13:44.352Z,98349.07
2019-02-28T15:16:26.561Z,98358.23
2019-02-28T15:18:56.943Z,98357.09
2019-02-28T15:21:27.266Z,98357.92
2019-02-28T15:23:57.673Z,98356.99
2019-02-28T15:26:29.564Z,98347.73
2019-02-28T15:29:00.719Z,98343.51
2019-02-28T15:31:31.173Z,98349.38
2019-02-28T15:34:05.501Z,98348.14
2019-02-28T15:36:34.525Z,98352.16
2019-02-28T15:39:06.238Z,98358.76
2019-02-28T15:41:37.742Z,98358.72
2019-02-28T15:44:08.663Z,98353.84
2019-02-28T15:46:39.770Z,98356.34
2019-02-28T15:49:10.980Z,98349.23
2019-02-28T15:51:41.570Z,98349.90
2019-02-28T15:54:11.872Z,98351.11
2019-02-28T15:56:42.295Z,98348.72
2019-02-28T15:59:14.787Z,98349.80
2019-02-28T16:01:44.606Z,98344.77
2019-02-28T16:04:14.957Z,98355.37
2019-02-28T16:06:45.490Z,98352.86
2019-02-28T16:09:18.759Z,98349.83
2019-02-28T16:11:49.168Z,98360.52
2019-02-28T16:14:19.531Z,98347.95
2019-02-28T16:16:50.385Z,98355.68
2019-02-28T16:19:21.940Z,98354.06
2019-02-28T16:21:53.216Z,98343.09
2019-02-28T16:24:23.654Z,98340.65
2019-02-28T16:26:56.743Z,98347.39
2019-02-28T16:29:26.389Z,98350.14
2019-02-28T16:31:57.122Z,98357.44
2019-02-28T16:34:27.596Z,98353.89
2019-02-28T16:37:00.948Z,98350.35
2019-02-28T16:39:29.787Z,98354.77
2019-02-28T16:42:00.288Z,98356.72
2019-02-28T16:44:31.818Z,98364.31
2019-02-28T16:47:03.455Z,98369.34
2019-02-28T16:49:33.693Z,98363.50
2019-02-28T16:52:06.022Z,98369.25
2019-02-28T16:54:36.167Z,98372.40
2019-02-28T16:57:09.495Z,98376.53
2019-02-28T16:59:42.785Z,98383.05
2019-02-28T17:02:13.597Z,98387.61
2019-02-28T17:04:44.074Z,98379.69
2019-02-28T17:07:15.197Z,98387.55
2019-02-28T17:09:45.510Z,98389.91
2019-02-28T17:12:36.206Z,98387.80
2019-02-28T17:15:13.390Z,98390.47
2019-02-28T17:17:51.412Z,98390.06
2019-02-28T17:20:21.819Z,98398.81
2019-02-28T17:22:52.414Z,98402.22
2019-02-28T17:25:22.819Z,98402.17
2019-02-28T17:28:12.293Z,98405.70
2019-02-28T17:30:56.047Z,98410.31
2019-02-28T17:33:26.383Z,98419.80
2019-02-28T17:35:59.144Z,98413.47
2019-02-28T17:38:32.293Z,98417.82
2019-02-28T17:41:03.628Z,98418.61
2019-02-28T17:43:36.902Z,98428.11
2019-02-28T17:46:08.225Z,98424.06
2019-02-28T17:48:59.707Z,98421.50
2019-02-28T17:51:59.306Z,98424.94
2019-02-28T17:55:08.852Z,98420.88
2019-02-28T17:58:16.318Z,98419.36
2019-02-28T18:01:32.664Z,98428.98
2019-02-28T18:05:03.801Z,98433.99
2019-02-28T18:08:02.119Z,98436.75
2019-02-28T18:11:17.961Z,98439.44
2019-02-28T18:14:11.179Z,98447.54
2019-02-28T18:17:26.430Z,98447.59
2019-02-28T18:20:20.904Z,98448.05
2019-02-28T18:23:21.265Z,98455.19
2019-02-28T18:26:13.258Z,98452.16
2019-02-28T18:29:09.234Z,98443.67
2019-02-28T18:31:41.985Z,98441.33
2019-02-28T18:34:21.925Z,98446.11
2019-02-28T18:36:54.559Z,98445.56
2019-02-28T18:39:25.472Z,98447.16
2019-02-28T18:41:55.860Z,98440.75
2019-02-28T18:44:26.828Z,98449.27
2019-02-28T18:46:58.197Z,98445.42
2019-02-28T18:49:29.422Z,98444.08
2019-02-28T18:52:01.607Z,98441.08
2019-02-28T18:54:31.996Z,98438.72
2019-02-28T18:57:04.550Z,98447.84
2019-02-28T18:59:36.593Z,98447.36
2019-02-28T19:02:07.309Z,98446.27
2019-02-28T19:04:38.206Z,98444.15
2019-02-28T19:07:08.491Z,98439.43
2019-02-28T19:09:40.425Z,98437.67
2019-02-28T19:12:11.459Z,98442.03
2019-02-28T19:14:42.421Z,98439.74
2019-02-28T19:17:13.777Z,98443.64
2019-02-28T19:19:45.185Z,98452.19
2019-02-28T19:22:16.018Z,98457.35
2019-02-28T19:25:16.917Z,98446.87
2019-02-28T19:27:47.390Z,98456.95
2019-02-28T19:30:18.060Z,98457.23
2019-02-28T19:32:48.383Z,98450.66
2019-02-28T19:35:18.789Z,98454.07
2019-02-28T19:37:49.963Z,98450.59
2019-02-28T19:40:20.288Z,98460.77
2019-02-28T19:42:50.738Z,98453.98
2019-02-28T19:45:24.355Z,98470.98
2019-02-28T19:47:54.659Z,98463.66
2019-02-28T19:50:24.912Z,98470.58
2019-02-28T19:52:55.412Z,98467.69
2019-02-28T19:55:26.987Z,98467.02
2019-02-28T19:57:57.322Z,98473.83
2019-02-28T20:00:27.868Z,98477.33
2019-02-28T20:02:58.090Z,98483.61
2019-02-28T20:05:28.647Z,98475.75
2019-02-28T20:07:59.183Z,98479.75
2019-02-28T20:10:29.608Z,98477.91
2019-02-28T20:13:01.711Z,98481.88
2019-02-28T20:15:34.266Z,98477.47
2019-02-28T20:18:04.697Z,98479.22
2019-02-28T20:20:35.135Z,98476.35
2019-02-28T20:23:06.199Z,98482.16
2019-02-28T20:25:36.759Z,98476.20
2019-02-28T20:28:07.038Z,98475.90
2019-02-28T20:30:37.385Z,98469.47
2019-02-28T20:33:07.737Z,98474.22
2019-02-28T20:35:38.055Z,98473.75
2019-02-28T20:38:08.725Z,98472.16
2019-02-28T20:40:39.185Z,98477.98
2019-02-28T20:43:09.631Z,98475.13
2019-02-28T20:45:41.165Z,98478.03
2019-02-28T20:48:11.581Z,98482.16
2019-02-28T20:50:42.605Z,98480.34
2019-02-28T20:53:12.849Z,98495.28
2019-02-28T20:55:43.317Z,98497.94
2019-02-28T20:58:13.695Z,98495.84
2019-02-28T21:00:44.882Z,98498.89
2019-02-28T21:03:15.312Z,98495.66
2019-02-28T21:05:45.629Z,98494.59
2019-02-28T21:08:15.956Z,98490.06
2019-02-28T21:10:46.782Z,98493.38
2019-02-28T21:13:22.013Z,98493.53
2019-02-28T21:15:52.298Z,98498.58
2019-02-28T21:18:22.652Z,98501.89
2019-02-28T21:20:53.018Z,98502.94
2019-02-28T21:23:23.702Z,98503.68
2019-02-28T21:25:54.126Z,98508.44
2019-02-28T21:28:25.679Z,98506.87
2019-02-28T21:30:57.776Z,98515.77
2019-02-28T21:33:29.114Z,98508.45
2019-02-28T21:36:00.701Z,98508.84
2019-02-28T21:38:35.881Z,98503.90
2019-02-28T21:41:09.329Z,98502.08
2019-02-28T21:43:40.788Z,98507.30
2019-02-28T21:46:29.449Z,98507.75
2019-02-28T21:48:59.862Z,98511.77
2019-02-28T21:51:31.095Z,98510.52
2019-02-28T21:54:01.677Z,98496.48
2019-02-28T21:56:33.470Z,98506.09
2019-02-28T21:59:06.567Z,98498.53
2019-02-28T22:01:36.953Z,98500.30
2019-02-28T22:04:08.532Z,98497.95
2019-02-28T22:06:42.654Z,98497.45
2019-02-28T22:09:14.207Z,98494.23
2019-02-28T22:11:46.134Z,98490.83
2019-02-28T22:14:16.728Z,98485.45
2019-02-28T22:16:46.995Z,98484.37
2019-02-28T22:19:17.244Z,98481.66
2019-02-28T22:21:47.576Z,98482.98
2019-02-28T22:24:18.033Z,98477.77
2019-02-28T22:26:49.319Z,98458.52
2019-02-28T22:29:19.632Z,98454.66
2019-02-28T22:32:07.936Z,98450.81
2019-02-28T22:35:03.201Z,98449.59
2019-02-28T22:37:33.647Z,98454.13
2019-02-28T22:40:04.110Z,98463.88
2019-02-28T22:42:35.466Z,98468.08
2019-02-28T22:45:06.411Z,98472.23
2019-02-28T22:47:37.094Z,98482.00
2019-02-28T22:50:07.790Z,98482.04
2019-02-28T22:52:38.283Z,98487.78
2019-02-28T22:55:08.899Z,98491.33
2019-02-28T22:57:39.149Z,98482.75
2019-02-28T23:00:22.099Z,98486.45
2019-02-28T23:03:18.994Z,98485.30
2019-02-28T23:05:49.533Z,98490.17
2019-02-28T23:08:19.841Z,98482.36
2019-02-28T23:10:50.128Z,98476.03
2019-02-28T23:13:20.475Z,98474.28
2019-02-28T23:15:50.702Z,98477.06
2019-02-28T23:18:20.943Z,98467.86
2019-02-28T23:20:51.221Z,98467.12
2019-02-28T23:23:21.481Z,98470.56
2019-02-28T23:25:52.123Z,98472.31
2019-02-28T23:28:30.787Z,98471.81
2019-02-28T23:31:35.635Z,98468.03
2019-02-28T23:34:11.727Z,98470.16
2019-02-28T23:36:42.053Z,98464.52
2019-02-28T23:39:12.297Z,98468.53
2019-02-28T23:41:42.689Z,98464.89
2019-02-28T23:44:13.173Z,98459.33
2019-02-28T23:46:43.428Z,98458.77
2019-02-28T23:49:13.656Z,98457.52
2019-02-28T23:51:44.966Z,98459.67
2019-02-28T23:54:15.250Z,98450.33
2019-02-28T23:56:45.473Z,98447.39
2019-02-28T23:59:15.859Z,98447.81
